createdAt,value
2023-05-19T00:01:19.164Z,3.42
2023-05-19T00:03:55.348Z,2.90
2023-05-19T00:06:31.847Z,2.70
2023-05-19T00:09:06.079Z,3.13
2023-05-19T00:11:41.647Z,2.90
2023-05-19T00:14:13.751Z,2.95
2023-05-19T00:16:45.850Z,3.22
2023-05-19T00:19:18.929Z,2.60
2023-05-19T00:21:50.882Z,2.80
2023-05-19T00:24:25.611Z,2.80
2023-05-19T00:26:57.412Z,3.67
2023-05-19T00:29:29.432Z,2.80
2023-05-19T00:32:01.240Z,2.80
2023-05-19T00:34:33.550Z,2.65
2023-05-19T00:37:05.403Z,2.35
2023-05-19T00:39:37.205Z,2.85
2023-05-19T00:42:09.516Z,2.85
2023-05-19T00:44:43.074Z,3.20
2023-05-19T00:47:14.941Z,2.90
2023-05-19T00:49:46.727Z,2.65
2023-05-19T00:52:18.635Z,2.45
2023-05-19T00:54:52.021Z,2.80
2023-05-19T00:57:26.089Z,2.90
2023-05-19T00:59:57.965Z,2.85
2023-05-19T01:02:30.039Z,2.65
2023-05-19T01:05:02.646Z,2.72
2023-05-19T01:07:34.566Z,2.83
2023-05-19T01:10:06.734Z,2.42
2023-05-19T01:12:40.849Z,2.47
2023-05-19T01:15:13.903Z,2.72
2023-05-19T01:17:49.604Z,2.85
2023-05-19T01:20:36.384Z,2.60
2023-05-19T01:23:41.062Z,2.63
2023-05-19T01:26:41.038Z,2.35
2023-05-19T01:29:21.076Z,2.92
2023-05-19T01:31:55.586Z,2.60
2023-05-19T01:34:27.911Z,2.65
2023-05-19T01:37:01.099Z,2.35
2023-05-19T01:39:33.552Z,2.55
2023-05-19T01:42:06.725Z,3.10
2023-05-19T01:44:38.880Z,2.83
2023-05-19T01:47:14.058Z,2.95
2023-05-19T01:49:46.657Z,2.33
2023-05-19T01:52:18.586Z,2.55
2023-05-19T01:54:50.534Z,2.60
2023-05-19T01:57:25.370Z,3.05
2023-05-19T02:00:19.888Z,3.13
2023-05-19T02:03:35.053Z,2.55
2023-05-19T02:06:29.841Z,3.30
2023-05-19T02:09:34.903Z,2.75
2023-05-19T02:12:19.349Z,2.92
2023-05-19T02:14:59.946Z,2.95
2023-05-19T02:17:36.207Z,2.85
2023-05-19T02:20:12.067Z,3.53
2023-05-19T02:22:45.331Z,2.75
2023-05-19T02:25:18.496Z,2.78
2023-05-19T02:27:52.493Z,2.53
2023-05-19T02:30:24.412Z,3.10
2023-05-19T02:32:56.335Z,3.17
2023-05-19T02:35:28.352Z,3.35
2023-05-19T02:38:00.138Z,3.72
2023-05-19T02:40:34.238Z,3.20
2023-05-19T02:43:06.442Z,3.20
2023-05-19T02:45:38.830Z,3.60
2023-05-19T02:48:11.025Z,3.15
2023-05-19T02:50:46.004Z,2.85
2023-05-19T02:53:17.795Z,3.00
2023-05-19T02:55:49.590Z,2.63
2023-05-19T02:58:21.333Z,3.53
2023-05-19T03:00:53.126Z,4.95
2023-05-19T03:03:25.003Z,3.40
2023-05-19T03:05:57.026Z,2.80
2023-05-19T03:08:28.909Z,3.13
2023-05-19T03:11:00.762Z,3.28
2023-05-19T03:13:32.870Z,2.78
2023-05-19T03:16:04.982Z,3.92
2023-05-19T03:18:37.267Z,3.42
2023-05-19T03:21:09.224Z,3.53
2023-05-19T03:23:41.157Z,3.38
2023-05-19T03:26:15.049Z,3.40
2023-05-19T03:28:46.894Z,3.35
2023-05-19T03:31:21.800Z,3.30
2023-05-19T03:33:53.774Z,3.90
2023-05-19T03:36:32.117Z,3.53
2023-05-19T03:39:06.824Z,3.35
2023-05-19T03:41:38.601Z,3.30
2023-05-19T03:44:10.405Z,3.10
2023-05-19T03:46:42.556Z,3.55
2023-05-19T03:49:33.132Z,3.35
2023-05-19T03:52:19.776Z,3.47
2023-05-19T03:54:58.871Z,3.50
2023-05-19T03:57:30.670Z,3.10
2023-05-19T04:00:04.080Z,3.15
2023-05-19T04:02:44.057Z,3.08
2023-05-19T04:05:16.102Z,3.53
2023-05-19T04:07:47.973Z,3.55
2023-05-19T04:10:20.669Z,3.55
2023-05-19T04:12:52.843Z,3.50
2023-05-19T04:15:27.028Z,3.40
2023-05-19T04:18:00.400Z,2.92
2023-05-19T04:20:32.402Z,3.22
2023-05-19T04:23:07.195Z,3.03
2023-05-19T04:28:13.022Z,3.75
2023-05-19T04:30:46.678Z,3.15
2023-05-19T04:33:21.561Z,3.13
2023-05-19T04:35:53.418Z,3.20
2023-05-19T04:38:25.204Z,3.55
2023-05-19T04:41:01.692Z,3.20
2023-05-19T04:43:34.348Z,3.20
2023-05-19T04:46:06.485Z,3.60
2023-05-19T04:48:38.944Z,3.80
2023-05-19T04:51:14.207Z,3.83
2023-05-19T04:53:46.235Z,3.63
2023-05-19T04:56:19.385Z,3.50
2023-05-19T04:58:51.621Z,3.55
2023-05-19T05:01:26.626Z,3.75
2023-05-19T05:04:01.200Z,3.88
2023-05-19T05:06:33.562Z,3.70
2023-05-19T05:09:05.488Z,3.92
2023-05-19T05:11:37.530Z,3.47
2023-05-19T05:14:12.801Z,3.75
2023-05-19T05:16:46.528Z,3.75
2023-05-19T05:19:24.119Z,3.70
2023-05-19T05:21:57.429Z,3.55
2023-05-19T05:24:29.505Z,4.30
2023-05-19T05:27:05.850Z,4.25
2023-05-19T05:29:38.356Z,3.60
2023-05-19T05:32:11.582Z,3.70
2023-05-19T05:34:43.786Z,3.35
2023-05-19T05:37:16.249Z,3.85
2023-05-19T05:39:48.190Z,3.90
2023-05-19T05:42:20.383Z,4.00
2023-05-19T05:44:53.318Z,3.47
2023-05-19T05:47:25.499Z,3.55
2023-05-19T05:49:57.765Z,4.18
2023-05-19T05:52:31.066Z,3.40
2023-05-19T05:55:05.846Z,3.05
2023-05-19T05:57:41.905Z,3.60
2023-05-19T06:00:17.517Z,3.92
2023-05-19T06:02:57.337Z,3.30
2023-05-19T06:05:31.243Z,3.50
2023-05-19T06:08:03.798Z,3.22
2023-05-19T06:10:37.005Z,3.45
2023-05-19T06:13:12.192Z,3.70
2023-05-19T06:15:46.183Z,3.70
2023-05-19T06:18:32.549Z,3.40
2023-05-19T06:21:06.349Z,3.42
2023-05-19T06:23:38.247Z,3.15
2023-05-19T06:26:12.511Z,3.40
2023-05-19T06:28:44.394Z,2.90
2023-05-19T06:31:17.024Z,3.22
2023-05-19T06:33:56.850Z,3.10
2023-05-19T06:36:29.988Z,3.50
2023-05-19T06:39:04.236Z,3.42
2023-05-19T06:44:09.453Z,4.22
2023-05-19T06:46:41.469Z,2.88
2023-05-19T06:49:13.509Z,3.13
2023-05-19T06:51:49.498Z,3.97
2023-05-19T06:54:23.547Z,3.22
2023-05-19T06:56:55.432Z,3.17
2023-05-19T06:59:27.417Z,3.75
2023-05-19T07:01:59.573Z,3.50
2023-05-19T07:04:31.526Z,3.05
2023-05-19T07:07:03.574Z,3.00
2023-05-19T07:09:38.602Z,3.60
2023-05-19T07:12:10.635Z,3.05
2023-05-19T07:14:42.787Z,4.53
2023-05-19T07:17:15.852Z,3.30
2023-05-19T07:19:50.004Z,3.08
2023-05-19T07:22:22.399Z,3.40
2023-05-19T07:24:57.305Z,3.28
2023-05-19T07:27:29.272Z,3.10
2023-05-19T07:30:01.226Z,3.33
2023-05-19T07:32:33.239Z,3.55
2023-05-19T07:35:09.139Z,3.15
2023-05-19T07:37:41.739Z,3.30
2023-05-19T07:40:13.748Z,3.83
2023-05-19T07:42:49.737Z,3.40
2023-05-19T07:45:21.606Z,3.03
2023-05-19T07:47:54.678Z,3.30
2023-05-19T07:50:26.873Z,2.97
2023-05-19T07:52:58.778Z,3.20
2023-05-19T07:55:30.958Z,2.78
2023-05-19T07:58:03.144Z,2.83
2023-05-19T08:00:35.505Z,3.15
2023-05-19T08:03:08.225Z,2.60
2023-05-19T08:05:40.701Z,3.10
2023-05-19T08:08:12.923Z,3.92
2023-05-19T08:10:45.258Z,3.20
2023-05-19T08:13:17.297Z,3.00
2023-05-19T08:15:49.264Z,2.63
2023-05-19T08:18:21.564Z,2.92
2023-05-19T08:20:56.436Z,2.70
2023-05-19T08:23:28.445Z,2.85
2023-05-19T08:26:00.769Z,3.00
2023-05-19T08:28:32.776Z,3.50
2023-05-19T08:31:04.781Z,2.40
2023-05-19T08:33:39.734Z,2.83
2023-05-19T08:36:11.926Z,3.10
2023-05-19T08:38:43.899Z,2.75
2023-05-19T08:41:17.589Z,2.53
2023-05-19T08:43:50.206Z,2.60
2023-05-19T08:46:25.035Z,2.92
2023-05-19T08:49:05.019Z,2.70
2023-05-19T08:51:58.708Z,2.53
2023-05-19T08:54:38.348Z,2.58
2023-05-19T08:57:11.042Z,3.55
2023-05-19T08:59:44.358Z,2.70
2023-05-19T09:02:16.751Z,3.08
2023-05-19T09:04:49.446Z,3.10
2023-05-19T09:07:23.032Z,2.70
2023-05-19T09:09:54.937Z,2.80
2023-05-19T09:12:27.050Z,2.70
2023-05-19T09:14:59.860Z,2.55
2023-05-19T09:17:32.189Z,2.60
2023-05-19T09:20:11.022Z,2.67
2023-05-19T09:22:50.717Z,2.60
2023-05-19T09:25:24.055Z,2.88
2023-05-19T09:27:55.818Z,3.20
2023-05-19T09:30:27.731Z,2.83
2023-05-19T09:32:59.615Z,3.10
2023-05-19T09:35:31.939Z,2.47
2023-05-19T09:38:04.110Z,2.42
2023-05-19T09:40:36.289Z,2.40
2023-05-19T09:43:08.936Z,3.50
2023-05-19T09:45:40.890Z,2.70
2023-05-19T09:48:15.556Z,2.80
2023-05-19T09:53:22.041Z,3.00
2023-05-19T09:55:58.044Z,3.13
2023-05-19T09:58:37.389Z,2.70
2023-05-19T10:01:09.825Z,2.75
2023-05-19T10:03:42.706Z,2.53
2023-05-19T10:06:15.896Z,2.60
2023-05-19T10:08:50.611Z,2.72
2023-05-19T10:11:23.835Z,2.55
2023-05-19T10:13:56.233Z,2.60
2023-05-19T10:16:29.216Z,2.45
2023-05-19T10:19:02.689Z,2.50
2023-05-19T10:21:37.492Z,2.40
2023-05-19T10:24:10.878Z,3.20
2023-05-19T10:27:12.055Z,2.63
2023-05-19T10:29:49.865Z,2.70
2023-05-19T10:32:28.855Z,2.72
2023-05-19T10:35:19.029Z,2.83
2023-05-19T10:38:22.652Z,2.85
2023-05-19T10:41:13.188Z,2.80
2023-05-19T10:43:55.161Z,2.75
2023-05-19T10:46:28.656Z,3.22
2023-05-19T10:49:00.869Z,3.00
2023-05-19T10:51:34.063Z,2.90
2023-05-19T10:54:11.541Z,3.10
2023-05-19T10:56:47.567Z,2.80
2023-05-19T10:59:33.751Z,3.40
2023-05-19T11:02:07.426Z,3.53
2023-05-19T11:04:55.566Z,3.00
2023-05-19T11:07:28.251Z,3.17
2023-05-19T11:10:00.308Z,2.83
2023-05-19T11:12:42.098Z,3.00
2023-05-19T11:15:15.430Z,3.30
2023-05-19T11:17:49.393Z,3.05
2023-05-19T11:20:29.779Z,3.13
2023-05-19T11:23:10.929Z,2.75
2023-05-19T11:25:45.222Z,3.55
2023-05-19T11:28:20.066Z,2.80
2023-05-19T11:30:57.838Z,3.00
2023-05-19T11:33:33.063Z,2.67
2023-05-19T11:36:05.559Z,2.70
2023-05-19T11:38:37.992Z,2.50
2023-05-19T11:41:09.952Z,2.80
2023-05-19T11:43:42.214Z,2.63
2023-05-19T11:46:14.800Z,2.80
2023-05-19T11:48:47.712Z,2.67
2023-05-19T11:51:21.792Z,2.92
2023-05-19T11:53:54.887Z,2.45
2023-05-19T11:56:26.875Z,2.80
2023-05-19T11:58:58.799Z,2.45
2023-05-19T12:01:33.716Z,2.30
2023-05-19T12:04:11.660Z,2.58
2023-05-19T12:06:44.060Z,2.47
2023-05-19T12:09:16.133Z,2.70
2023-05-19T12:11:48.207Z,2.60
2023-05-19T12:14:20.228Z,2.47
2023-05-19T12:16:52.368Z,2.08
2023-05-19T12:19:26.190Z,2.17
2023-05-19T12:21:58.277Z,2.35
2023-05-19T12:24:30.900Z,2.22
2023-05-19T12:27:24.601Z,3.10
2023-05-19T12:30:00.190Z,2.45
2023-05-19T12:32:35.878Z,1.98
2023-05-19T12:35:08.489Z,2.25
2023-05-19T12:37:43.684Z,2.30
2023-05-19T12:40:17.108Z,2.55
2023-05-19T12:42:53.462Z,2.28
2023-05-19T12:45:28.096Z,2.13
2023-05-19T12:48:03.505Z,2.30
2023-05-19T12:50:37.939Z,2.65
2023-05-19T12:55:45.575Z,3.50
2023-05-19T12:58:17.613Z,2.80
2023-05-19T13:00:53.218Z,2.60
2023-05-19T13:03:25.713Z,2.88
2023-05-19T13:05:59.796Z,2.60
2023-05-19T13:08:32.314Z,2.47
2023-05-19T13:11:04.533Z,2.63
2023-05-19T13:13:36.421Z,2.50
2023-05-19T13:16:08.289Z,2.33
2023-05-19T13:18:40.225Z,2.50
2023-05-19T13:21:12.055Z,2.22
2023-05-19T13:23:44.071Z,2.40
2023-05-19T13:26:16.393Z,2.33
2023-05-19T13:28:51.098Z,2.17
2023-05-19T13:31:22.979Z,2.10
2023-05-19T13:33:55.071Z,2.22
2023-05-19T13:36:28.002Z,2.33
2023-05-19T13:39:00.938Z,2.00
2023-05-19T13:41:33.045Z,1.88
2023-05-19T13:44:05.052Z,2.95
2023-05-19T13:46:45.566Z,2.25
2023-05-19T13:49:18.822Z,2.50
2023-05-19T13:51:50.752Z,2.47
2023-05-19T13:54:22.748Z,2.60
2023-05-19T13:56:54.660Z,1.92
2023-05-19T13:59:26.822Z,2.40
2023-05-19T14:02:01.006Z,2.17
2023-05-19T14:04:33.541Z,3.17
2023-05-19T14:07:07.445Z,2.60
2023-05-19T14:09:39.712Z,2.47
2023-05-19T14:12:12.336Z,2.42
2023-05-19T14:14:44.302Z,2.22
2023-05-19T14:17:16.211Z,2.38
2023-05-19T14:19:48.214Z,2.60
2023-05-19T14:22:20.164Z,2.95
2023-05-19T14:24:52.158Z,2.55
2023-05-19T14:27:24.415Z,2.80
2023-05-19T14:29:56.356Z,2.55
2023-05-19T14:32:30.319Z,2.85
2023-05-19T14:35:02.885Z,2.50
2023-05-19T14:37:34.851Z,2.70
2023-05-19T14:40:07.310Z,3.00
2023-05-19T14:42:39.600Z,2.63
2023-05-19T14:45:11.948Z,3.00
2023-05-19T14:47:43.902Z,3.10
2023-05-19T14:50:16.119Z,3.15
2023-05-19T14:52:48.131Z,3.13
2023-05-19T14:55:20.099Z,2.92
2023-05-19T14:57:52.033Z,3.28
2023-05-19T15:00:26.265Z,3.53
2023-05-19T15:03:00.961Z,3.42
2023-05-19T15:05:32.941Z,3.53
2023-05-19T15:08:06.379Z,3.33
2023-05-19T15:10:38.439Z,4.40
2023-05-19T15:13:12.330Z,3.25
2023-05-19T15:15:44.458Z,3.63
2023-05-19T15:18:18.892Z,4.13
2023-05-19T15:20:50.968Z,3.78
2023-05-19T15:23:23.044Z,3.38
2023-05-19T15:25:54.943Z,3.60
2023-05-19T15:28:27.146Z,3.42
2023-05-19T15:30:59.136Z,3.53
2023-05-19T15:33:31.147Z,3.47
2023-05-19T15:36:03.143Z,4.07
2023-05-19T15:38:36.511Z,4.88
2023-05-19T15:41:08.948Z,3.17
2023-05-19T15:43:41.602Z,4.90
2023-05-19T15:46:13.603Z,3.05
2023-05-19T15:48:45.492Z,3.20
2023-05-19T15:51:17.686Z,3.20
2023-05-19T15:53:49.727Z,3.35
2023-05-19T15:56:22.583Z,3.65
2023-05-19T15:58:54.711Z,3.55
2023-05-19T16:01:27.178Z,3.70
2023-05-19T16:04:00.880Z,3.13
2023-05-19T16:06:32.874Z,3.13
2023-05-19T16:09:04.785Z,3.60
2023-05-19T16:11:36.770Z,3.65
2023-05-19T16:14:08.578Z,4.18
2023-05-19T16:16:40.693Z,4.35
2023-05-19T16:19:13.666Z,3.40
2023-05-19T16:21:46.119Z,2.75
2023-05-19T16:24:18.195Z,4.10
2023-05-19T16:26:50.515Z,4.18
2023-05-19T16:29:22.929Z,4.32
2023-05-19T16:31:55.309Z,4.13
2023-05-19T16:34:29.948Z,4.18
2023-05-19T16:37:02.815Z,4.65
2023-05-19T16:39:37.314Z,4.20
2023-05-19T16:42:09.861Z,4.40
2023-05-19T16:44:42.768Z,4.60
2023-05-19T16:47:14.730Z,4.38
2023-05-19T16:49:46.879Z,4.80
2023-05-19T16:52:18.781Z,5.35
2023-05-19T16:54:50.807Z,4.72
2023-05-19T16:57:22.931Z,4.40
2023-05-19T16:59:57.458Z,4.30
2023-05-19T17:02:29.598Z,5.18
2023-05-19T17:05:01.609Z,4.80
2023-05-19T17:07:33.572Z,4.05
2023-05-19T17:10:06.130Z,4.35
2023-05-19T17:12:38.313Z,4.22
2023-05-19T17:15:11.066Z,4.00
2023-05-19T17:17:43.117Z,4.03
2023-05-19T17:20:15.091Z,4.28
2023-05-19T17:22:47.074Z,4.15
2023-05-19T17:25:18.929Z,4.20
2023-05-19T17:27:52.454Z,3.88
2023-05-19T17:30:24.444Z,3.72
2023-05-19T17:32:59.510Z,3.90
2023-05-19T17:35:33.660Z,3.10
2023-05-19T17:38:05.865Z,3.47
2023-05-19T17:40:38.614Z,3.28
2023-05-19T17:43:12.035Z,3.70
2023-05-19T17:45:44.088Z,3.72
2023-05-19T17:48:16.382Z,4.30
2023-05-19T17:50:48.744Z,3.50
2023-05-19T17:53:21.505Z,3.78
2023-05-19T17:55:58.920Z,3.83
2023-05-19T17:58:31.283Z,3.40
2023-05-19T18:01:03.362Z,3.45
2023-05-19T18:03:38.692Z,3.50
2023-05-19T18:06:12.260Z,4.05
2023-05-19T18:08:50.663Z,3.95
2023-05-19T18:11:23.327Z,3.70
2023-05-19T18:13:55.318Z,3.80
2023-05-19T18:16:28.005Z,3.70
2023-05-19T18:19:00.190Z,3.55
2023-05-19T18:21:32.108Z,3.63
2023-05-19T18:24:05.493Z,3.40
2023-05-19T18:26:41.887Z,3.40
2023-05-19T18:29:15.151Z,3.42
2023-05-19T18:31:47.118Z,3.95
2023-05-19T18:34:20.963Z,3.80
2023-05-19T18:36:52.794Z,3.70
2023-05-19T18:39:29.446Z,3.60
2023-05-19T18:42:02.033Z,3.78
2023-05-19T18:44:34.046Z,4.40
2023-05-19T18:47:06.356Z,4.05
2023-05-19T18:49:38.862Z,4.47
2023-05-19T18:52:11.208Z,5.75
2023-05-19T18:54:44.238Z,4.72
2023-05-19T18:57:16.048Z,4.70
2023-05-19T18:59:48.281Z,4.05
2023-05-19T19:02:20.483Z,4.90
2023-05-19T19:04:52.705Z,4.82
2023-05-19T19:07:27.009Z,5.45
2023-05-19T19:09:58.878Z,5.20
2023-05-19T19:12:30.921Z,5.68
2023-05-19T19:15:03.582Z,5.50
2023-05-19T19:17:40.074Z,5.80
2023-05-19T19:20:13.010Z,5.13
2023-05-19T19:22:44.953Z,6.13
2023-05-19T19:25:16.949Z,6.20
2023-05-19T19:27:48.821Z,6.65
2023-05-19T19:30:20.815Z,6.45
2023-05-19T19:32:53.678Z,6.28
2023-05-19T19:35:25.693Z,6.18
2023-05-19T19:38:00.870Z,6.28
2023-05-19T19:40:33.101Z,6.68
2023-05-19T19:43:08.323Z,6.95
2023-05-19T19:45:43.501Z,7.15
2023-05-19T19:48:15.489Z,7.53
2023-05-19T19:50:52.955Z,7.88
2023-05-19T19:53:27.963Z,7.47
2023-05-19T19:56:01.946Z,7.38
2023-05-19T19:58:36.883Z,7.63
2023-05-19T20:01:08.902Z,7.22
2023-05-19T20:03:41.035Z,7.85
2023-05-19T20:06:13.822Z,7.75
2023-05-19T20:08:46.235Z,7.72
2023-05-19T20:11:18.196Z,8.63
2023-05-19T20:13:50.522Z,8.18
2023-05-19T20:16:26.535Z,7.75
2023-05-19T20:18:58.638Z,8.40
2023-05-19T20:21:30.745Z,8.38
2023-05-19T20:24:02.706Z,8.70
2023-05-19T20:26:34.970Z,8.88
2023-05-19T20:29:06.835Z,8.98
2023-05-19T20:31:39.078Z,8.70
2023-05-19T20:34:12.463Z,9.50
2023-05-19T20:36:44.676Z,8.85
2023-05-19T20:39:16.651Z,9.15
2023-05-19T20:41:48.559Z,9.82
2023-05-19T20:44:20.410Z,9.88
2023-05-19T20:46:52.506Z,7.85
2023-05-19T20:49:25.967Z,9.52
2023-05-19T20:51:59.960Z,9.77
2023-05-19T20:54:31.890Z,10.05
2023-05-19T20:57:08.739Z,10.52
2023-05-19T20:59:41.951Z,9.77
2023-05-19T21:02:13.874Z,10.48
2023-05-19T21:04:46.351Z,10.93
2023-05-19T21:07:18.613Z,9.75
2023-05-19T21:09:54.368Z,10.32
2023-05-19T21:12:28.988Z,10.18
2023-05-19T21:17:33.572Z,11.25
2023-05-19T21:20:06.318Z,11.95
2023-05-19T21:22:38.406Z,10.95
2023-05-19T21:25:10.704Z,10.23
2023-05-19T21:27:42.877Z,11.18
2023-05-19T21:30:14.947Z,11.35
2023-05-19T21:32:47.205Z,10.93
2023-05-19T21:35:19.187Z,11.68
2023-05-19T21:37:51.526Z,12.02
2023-05-19T21:40:23.710Z,10.93
2023-05-19T21:42:55.730Z,12.15
2023-05-19T21:45:27.868Z,12.20
2023-05-19T21:48:00.188Z,12.48
2023-05-19T21:50:36.590Z,11.68
2023-05-19T21:53:08.702Z,12.02
2023-05-19T21:58:20.948Z,12.35
2023-05-19T22:00:56.168Z,12.60
2023-05-19T22:03:33.147Z,12.32
2023-05-19T22:06:06.574Z,13.55
2023-05-19T22:08:38.455Z,12.23
2023-05-19T22:11:10.401Z,13.52
2023-05-19T22:13:44.676Z,12.98
2023-05-19T22:16:16.573Z,13.05
2023-05-19T22:18:51.496Z,12.57
2023-05-19T22:21:23.393Z,12.75
2023-05-19T22:23:58.423Z,13.85
2023-05-19T22:26:30.562Z,14.23
2023-05-19T22:29:03.445Z,13.25
2023-05-19T22:31:35.365Z,13.30
2023-05-19T22:34:07.480Z,12.65
2023-05-19T22:36:44.385Z,13.88
2023-05-19T22:39:17.079Z,14.07
2023-05-19T22:41:52.218Z,13.63
2023-05-19T22:44:24.173Z,13.63
2023-05-19T22:46:56.312Z,14.70
2023-05-19T22:49:29.967Z,14.57
2023-05-19T22:52:02.021Z,14.00
2023-05-19T22:54:33.960Z,14.10
2023-05-19T22:57:06.062Z,14.10
2023-05-19T22:59:41.925Z,14.85
2023-05-19T23:02:14.108Z,13.73
2023-05-19T23:04:46.110Z,14.00
2023-05-19T23:07:18.358Z,14.05
2023-05-19T23:09:50.623Z,14.15
2023-05-19T23:12:22.655Z,14.65
2023-05-19T23:14:56.785Z,15.20
2023-05-19T23:17:31.744Z,15.15
2023-05-19T23:20:05.909Z,13.45
2023-05-19T23:22:38.073Z,14.15
2023-05-19T23:25:10.128Z,14.32
2023-05-19T23:27:46.538Z,15.15
2023-05-19T23:30:18.871Z,14.95
2023-05-19T23:32:51.012Z,15.27
2023-05-19T23:35:26.192Z,14.88
2023-05-19T23:37:58.305Z,15.27
2023-05-19T23:40:31.534Z,16.27
2023-05-19T23:43:03.568Z,16.00
2023-05-19T23:45:35.975Z,15.50
2023-05-19T23:48:11.307Z,15.20
2023-05-19T23:50:43.460Z,16.52
2023-05-19T23:53:18.299Z,15.57
2023-05-19T23:55:51.531Z,16.38
2023-05-19T23:58:23.673Z,15.25
